Flight Number: EUR3054 Duration: 10:00
Departure: Amsterdam Schiphol (EHAM) at 07:30 Distance: 4322 Nm
Arrival: Salt Lake City Intl Airport (KSLC) at 17:30 Equipment: B747

Weather Information
Amsterdam Airport Schiphol, Netherlands (EHAM) 52-18N 004-46E -2M Jan 23, 2018 - 04:55 AM EST / 2018.01.23 0955 UTC
Wind: from the S (190 degrees) at 14 MPH (12 KT):0
Visibility: greater than 7 mile(s):0
Sky conditions: mostly cloudy Temperature: 44 F (7 C) Dew Point: 41 F (5 C) Relative Humidity: 87% Pressure (altimeter): 30.09 in. Hg (1019 hPa)
ob: EHAM 230955Z 19012KT 9999 BKN031 07/05 Q1019 NOSIG cycle: 10
Sunrise: 07:38 Sunset: 16:07 (UTC)

SALT LAKE CITY INTERNATIONAL AIRPORT , UT, United States (KSLC) 40-47N 111-58W 1286M Jan 23, 2018 - 04:54 AM EST / 2018.01.23 0954 UTC
Wind: from the SE (130 degrees) at 6 MPH (5 KT):0
Visibility: 10 mile(s):0
Sky conditions: mostly cloudy Temperature: 28.9 F (-1.7 C)
Windchill: 23 F (-5 C):1 Dew Point: 25.0 F (-3.9 C) Relative Humidity: 84% Pressure (altimeter): 30.32 in. Hg (1026 hPa)
ob: KSLC 230954Z 13005KT 10SM BKN060 M02/M04 A3032 RMK AO2 SLP283 T10171039 cycle: 10
Sunrise: 14:48 Sunset: 00:31 (UTC)

TAF:2018/01/23 09:10 TAF AMD KSLC 230907Z 2309/2412 12005KT P6SM BKN060 FM231100 14005KT P6SM SCT060 BKN080 FM231900 29005KT P6SM SCT080 FM240200 15007KT P6SM FEW080 BKN200

Previous Pireps for this route
Date Aircraft Flight time Fuel used Landing rate On time
2015-01-27B74710.37206753-232Charter
2016-10-22B74710,07198276-194Yes
(pireps marked green are flown by you)

Route map